sensor_id;sensor_type;location;lat;lon;timestamp;pressure;altitude;pressure_sealevel;temperature;humidity
5703;BME280;2876;51.738;10.050;2023-07-02T00:02:22;98324.91;;;17.11;100.00
5703;BME280;2876;51.738;10.050;2023-07-02T00:08:24;98321.91;;;17.08;100.00
5703;BME280;2876;51.738;10.050;2023-07-02T00:14:26;98313.53;;;17.04;100.00
5703;BME280;2876;51.738;10.050;2023-07-02T00:20:28;98313.25;;;17.06;100.00
5703;BME280;2876;51.738;10.050;2023-07-02T00:26:32;98318.94;;;17.04;100.00
5703;BME280;2876;51.738;10.050;2023-07-02T00:32:34;98320.56;;;17.00;100.00
5703;BME280;2876;51.738;10.050;2023-07-02T00:38:36;98314.25;;;16.89;100.00
5703;BME280;2876;51.738;10.050;2023-07-02T00:44:38;98317.81;;;16.95;100.00
5703;BME280;2876;51.738;10.050;2023-07-02T00:50:42;98324.09;;;17.16;100.00
5703;BME280;2876;51.738;10.050;2023-07-02T00:56:44;98334.91;;;17.01;100.00
5703;BME280;2876;51.738;10.050;2023-07-02T01:02:55;98323.25;;;17.00;100.00
5703;BME280;2876;51.738;10.050;2023-07-02T01:09:03;98340.63;;;17.14;100.00
5703;BME280;2876;51.738;10.050;2023-07-02T01:15:07;98331.09;;;17.02;100.00
5703;BME280;2876;51.738;10.050;2023-07-02T01:21:09;98319.78;;;17.15;100.00
5703;BME280;2876;51.738;10.050;2023-07-02T01:27:11;98327.78;;;16.84;100.00
5703;BME280;2876;51.738;10.050;2023-07-02T01:33:13;98319.94;;;16.78;100.00
5703;BME280;2876;51.738;10.050;2023-07-02T01:39:15;98322.28;;;16.69;100.00
5703;BME280;2876;51.738;10.050;2023-07-02T01:45:17;98325.06;;;16.74;100.00
5703;BME280;2876;51.738;10.050;2023-07-02T01:57:36;98329.34;;;16.70;100.00
5703;BME280;2876;51.738;10.050;2023-07-02T02:03:38;98327.69;;;16.64;100.00
5703;BME280;2876;51.738;10.050;2023-07-02T02:09:40;98330.38;;;16.59;100.00
5703;BME280;2876;51.738;10.050;2023-07-02T02:15:42;98333.63;;;16.61;100.00
5703;BME280;2876;51.738;10.050;2023-07-02T02:21:44;98330.09;;;16.60;100.00
5703;BME280;2876;51.738;10.050;2023-07-02T02:27:46;98327.09;;;16.57;100.00
5703;BME280;2876;51.738;10.050;2023-07-02T02:33:48;98320.88;;;16.56;100.00
5703;BME280;2876;51.738;10.050;2023-07-02T02:39:50;98331.16;;;16.54;100.00
5703;BME280;2876;51.738;10.050;2023-07-02T02:45:52;98328.31;;;16.29;100.00
5703;BME280;2876;51.738;10.050;2023-07-02T02:51:54;98345.06;;;16.26;100.00
5703;BME280;2876;51.738;10.050;2023-07-02T02:57:57;98339.59;;;16.20;100.00
5703;BME280;2876;51.738;10.050;2023-07-02T03:03:59;98340.88;;;16.08;100.00
5703;BME280;2876;51.738;10.050;2023-07-02T03:10:01;98354.53;;;16.23;100.00
5703;BME280;2876;51.738;10.050;2023-07-02T03:16:04;98359.78;;;16.40;100.00
5703;BME280;2876;51.738;10.050;2023-07-02T03:22:06;98358.06;;;16.29;100.00
5703;BME280;2876;51.738;10.050;2023-07-02T03:28:08;98354.25;;;16.24;100.00
5703;BME280;2876;51.738;10.050;2023-07-02T03:34:10;98351.25;;;16.21;100.00
5703;BME280;2876;51.738;10.050;2023-07-02T03:40:12;98346.47;;;16.33;100.00
5703;BME280;2876;51.738;10.050;2023-07-02T03:46:14;98322.75;;;16.51;100.00
5703;BME280;2876;51.738;10.050;2023-07-02T03:52:16;98330.41;;;16.64;100.00
5703;BME280;2876;51.738;10.050;2023-07-02T03:58:18;98350.63;;;16.51;100.00
5703;BME280;2876;51.738;10.050;2023-07-02T04:04:20;98366.53;;;16.42;100.00
5703;BME280;2876;51.738;10.050;2023-07-02T04:10:22;98369.38;;;16.63;100.00
5703;BME280;2876;51.738;10.050;2023-07-02T04:16:24;98368.28;;;16.59;100.00
5703;BME280;2876;51.738;10.050;2023-07-02T04:22:26;98372.16;;;16.73;100.00
5703;BME280;2876;51.738;10.050;2023-07-02T04:28:28;98379.13;;;16.64;100.00
5703;BME280;2876;51.738;10.050;2023-07-02T04:34:30;98381.72;;;16.86;100.00
5703;BME280;2876;51.738;10.050;2023-07-02T04:40:32;98389.88;;;16.91;100.00
5703;BME280;2876;51.738;10.050;2023-07-02T04:46:34;98382.84;;;16.95;100.00
5703;BME280;2876;51.738;10.050;2023-07-02T04:52:36;98388.88;;;17.12;100.00
5703;BME280;2876;51.738;10.050;2023-07-02T04:58:38;98394.53;;;17.11;99.74
5703;BME280;2876;51.738;10.050;2023-07-02T05:04:40;98381.03;;;17.21;97.96
5703;BME280;2876;51.738;10.050;2023-07-02T05:10:43;98384.31;;;17.23;98.15
5703;BME280;2876;51.738;10.050;2023-07-02T05:16:44;98395.19;;;17.38;97.56
5703;BME280;2876;51.738;10.050;2023-07-02T05:22:46;98388.63;;;17.24;98.08
5703;BME280;2876;51.738;10.050;2023-07-02T05:28:48;98391.63;;;17.28;96.27
5703;BME280;2876;51.738;10.050;2023-07-02T05:34:50;98387.53;;;17.25;96.51
5703;BME280;2876;51.738;10.050;2023-07-02T05:40:52;98395.22;;;17.54;95.45
5703;BME280;2876;51.738;10.050;2023-07-02T05:46:54;98396.34;;;17.63;94.99
5703;BME280;2876;51.738;10.050;2023-07-02T05:52:56;98399.56;;;17.60;94.33
5703;BME280;2876;51.738;10.050;2023-07-02T05:58:58;98406.63;;;17.56;94.09
5703;BME280;2876;51.738;10.050;2023-07-02T06:05:00;98415.75;;;17.29;95.49
5703;BME280;2876;51.738;10.050;2023-07-02T06:11:03;98427.94;;;17.21;95.18
5703;BME280;2876;51.738;10.050;2023-07-02T06:17:06;98442.34;;;17.32;93.55
5703;BME280;2876;51.738;10.050;2023-07-02T06:23:09;98437.94;;;17.21;93.15
5703;BME280;2876;51.738;10.050;2023-07-02T06:29:11;98426.56;;;17.19;92.53
5703;BME280;2876;51.738;10.050;2023-07-02T06:35:13;98443.00;;;17.02;93.28
5703;BME280;2876;51.738;10.050;2023-07-02T06:41:15;98448.63;;;16.85;93.84
5703;BME280;2876;51.738;10.050;2023-07-02T06:47:18;98461.78;;;16.71;94.09
5703;BME280;2876;51.738;10.050;2023-07-02T06:53:22;98474.19;;;16.67;95.93
5703;BME280;2876;51.738;10.050;2023-07-02T06:59:24;98476.06;;;16.99;94.84
5703;BME280;2876;51.738;10.050;2023-07-02T07:05:26;98479.50;;;17.42;89.83
5703;BME280;2876;51.738;10.050;2023-07-02T07:11:28;98496.47;;;17.85;87.41
5703;BME280;2876;51.738;10.050;2023-07-02T07:17:30;98500.34;;;18.04;82.80
5703;BME280;2876;51.738;10.050;2023-07-02T07:23:32;98504.16;;;18.23;83.40
5703;BME280;2876;51.738;10.050;2023-07-02T07:29:34;98505.81;;;18.60;83.48
5703;BME280;2876;51.738;10.050;2023-07-02T07:35:36;98507.72;;;18.80;83.07
5703;BME280;2876;51.738;10.050;2023-07-02T07:41:38;98509.34;;;18.66;79.34
5703;BME280;2876;51.738;10.050;2023-07-02T07:47:40;98502.56;;;18.68;79.60
5703;BME280;2876;51.738;10.050;2023-07-02T07:53:42;98502.03;;;18.71;77.65
5703;BME280;2876;51.738;10.050;2023-07-02T07:59:44;98498.59;;;19.46;74.76
5703;BME280;2876;51.738;10.050;2023-07-02T08:05:46;98504.03;;;20.06;72.38
5703;BME280;2876;51.738;10.050;2023-07-02T08:11:48;98519.47;;;19.71;73.03
5703;BME280;2876;51.738;10.050;2023-07-02T08:17:51;98526.69;;;19.96;70.90
5703;BME280;2876;51.738;10.050;2023-07-02T08:23:56;98521.13;;;19.62;71.97
5703;BME280;2876;51.738;10.050;2023-07-02T08:29:59;98539.91;;;19.58;71.45
5703;BME280;2876;51.738;10.050;2023-07-02T08:36:01;98532.31;;;19.50;68.77
5703;BME280;2876;51.738;10.050;2023-07-02T08:42:04;98548.19;;;19.97;69.59
5703;BME280;2876;51.738;10.050;2023-07-02T08:48:07;98548.56;;;20.25;66.15
5703;BME280;2876;51.738;10.050;2023-07-02T08:54:09;98557.06;;;20.18;66.18
5703;BME280;2876;51.738;10.050;2023-07-02T09:00:12;98565.59;;;20.01;65.53
5703;BME280;2876;51.738;10.050;2023-07-02T09:06:18;98565.91;;;20.44;61.07
5703;BME280;2876;51.738;10.050;2023-07-02T09:18:28;98570.16;;;20.95;58.46
5703;BME280;2876;51.738;10.050;2023-07-02T09:24:31;98575.00;;;21.03;56.50
5703;BME280;2876;51.738;10.050;2023-07-02T09:30:34;98566.53;;;20.70;58.85
5703;BME280;2876;51.738;10.050;2023-07-02T09:36:36;98572.41;;;20.88;59.41
5703;BME280;2876;51.738;10.050;2023-07-02T09:42:42;98573.78;;;20.46;57.92
5703;BME280;2876;51.738;10.050;2023-07-02T09:48:44;98577.13;;;19.78;60.53
5703;BME280;2876;51.738;10.050;2023-07-02T09:54:47;98595.41;;;19.52;63.94
5703;BME280;2876;51.738;10.050;2023-07-02T10:00:49;98595.75;;;19.10;65.52
5703;BME280;2876;51.738;10.050;2023-07-02T10:06:53;98603.34;;;19.33;64.07
5703;BME280;2876;51.738;10.050;2023-07-02T10:12:55;98597.31;;;19.51;64.36
5703;BME280;2876;51.738;10.050;2023-07-02T10:19:11;98594.13;;;20.14;61.07
5703;BME280;2876;51.738;10.050;2023-07-02T10:25:31;98595.16;;;20.73;57.85
5703;BME280;2876;51.738;10.050;2023-07-02T10:31:33;98601.06;;;21.14;56.10
5703;BME280;2876;51.738;10.050;2023-07-02T10:37:36;98611.13;;;20.85;54.69
5703;BME280;2876;51.738;10.050;2023-07-02T10:43:41;98621.03;;;20.26;56.83
5703;BME280;2876;51.738;10.050;2023-07-02T10:49:43;98613.91;;;19.50;59.46
5703;BME280;2876;51.738;10.050;2023-07-02T10:55:54;98626.41;;;19.56;60.28
5703;BME280;2876;51.738;10.050;2023-07-02T11:01:58;98624.06;;;20.14;58.33
5703;BME280;2876;51.738;10.050;2023-07-02T11:08:08;98622.47;;;20.97;54.38
5703;BME280;2876;51.738;10.050;2023-07-02T11:14:10;98617.78;;;21.08;54.64
5703;BME280;2876;51.738;10.050;2023-07-02T11:20:14;98634.63;;;20.75;57.21
5703;BME280;2876;51.738;10.050;2023-07-02T11:26:17;98618.38;;;21.34;54.27
5703;BME280;2876;51.738;10.050;2023-07-02T11:32:19;98634.63;;;20.81;54.66
5703;BME280;2876;51.738;10.050;2023-07-02T11:38:21;98636.72;;;20.44;56.32
5703;BME280;2876;51.738;10.050;2023-07-02T11:44:23;98646.03;;;20.33;57.36
5703;BME280;2876;51.738;10.050;2023-07-02T11:50:25;98641.06;;;21.24;54.44
5703;BME280;2876;51.738;10.050;2023-07-02T11:56:28;98632.00;;;21.87;49.00
5703;BME280;2876;51.738;10.050;2023-07-02T12:02:30;98642.00;;;21.96;49.77
5703;BME280;2876;51.738;10.050;2023-07-02T12:08:32;98649.88;;;21.16;52.77
5703;BME280;2876;51.738;10.050;2023-07-02T12:14:34;98655.06;;;21.75;52.60
5703;BME280;2876;51.738;10.050;2023-07-02T12:20:36;98649.53;;;22.71;49.17
5703;BME280;2876;51.738;10.050;2023-07-02T12:26:40;98652.47;;;23.13;49.18
5703;BME280;2876;51.738;10.050;2023-07-02T12:32:44;98649.41;;;22.20;49.02
5703;BME280;2876;51.738;10.050;2023-07-02T12:38:46;98652.97;;;21.38;50.22
5703;BME280;2876;51.738;10.050;2023-07-02T12:44:48;98659.28;;;21.34;49.92
5703;BME280;2876;51.738;10.050;2023-07-02T12:51:01;98661.53;;;22.33;49.34
5703;BME280;2876;51.738;10.050;2023-07-02T12:57:03;98668.34;;;23.11;46.36
5703;BME280;2876;51.738;10.050;2023-07-02T13:03:10;98663.47;;;22.51;47.47
5703;BME280;2876;51.738;10.050;2023-07-02T13:09:12;98660.72;;;22.32;48.64
5703;BME280;2876;51.738;10.050;2023-07-02T13:15:14;98671.56;;;21.65;49.91
5703;BME280;2876;51.738;10.050;2023-07-02T13:21:16;98668.88;;;21.60;50.41
5703;BME280;2876;51.738;10.050;2023-07-02T13:27:20;98667.44;;;21.39;50.12
5703;BME280;2876;51.738;10.050;2023-07-02T13:33:22;98670.91;;;21.49;48.75
5703;BME280;2876;51.738;10.050;2023-07-02T13:39:24;98676.75;;;21.67;49.27
5703;BME280;2876;51.738;10.050;2023-07-02T13:45:26;98672.72;;;21.59;48.28
5703;BME280;2876;51.738;10.050;2023-07-02T13:51:28;98660.38;;;22.58;45.59
5703;BME280;2876;51.738;10.050;2023-07-02T13:57:30;98656.53;;;22.16;46.44
5703;BME280;2876;51.738;10.050;2023-07-02T14:03:32;98655.78;;;23.10;44.37
5703;BME280;2876;51.738;10.050;2023-07-02T14:09:34;98664.88;;;22.48;46.39
5703;BME280;2876;51.738;10.050;2023-07-02T14:15:37;98657.50;;;22.68;50.33
5703;BME280;2876;51.738;10.050;2023-07-02T14:21:40;98667.25;;;22.07;47.53
5703;BME280;2876;51.738;10.050;2023-07-02T14:27:42;98670.09;;;21.49;48.79
5703;BME280;2876;51.738;10.050;2023-07-02T14:33:43;98667.63;;;22.24;47.64
5703;BME280;2876;51.738;10.050;2023-07-02T14:39:45;98675.31;;;21.98;48.52
5703;BME280;2876;51.738;10.050;2023-07-02T14:46:03;98667.34;;;22.02;50.03
5703;BME280;2876;51.738;10.050;2023-07-02T14:52:06;98678.94;;;21.65;50.47
5703;BME280;2876;51.738;10.050;2023-07-02T14:58:09;98677.06;;;21.60;49.64
5703;BME280;2876;51.738;10.050;2023-07-02T15:04:12;98672.28;;;22.00;49.07
5703;BME280;2876;51.738;10.050;2023-07-02T15:10:14;98678.41;;;22.16;50.52
5703;BME280;2876;51.738;10.050;2023-07-02T15:16:16;98675.03;;;21.71;50.04
5703;BME280;2876;51.738;10.050;2023-07-02T15:22:18;98675.91;;;21.66;51.27
5703;BME280;2876;51.738;10.050;2023-07-02T15:28:21;98677.19;;;21.74;49.09
5703;BME280;2876;51.738;10.050;2023-07-02T15:34:23;98672.41;;;21.90;49.66
5703;BME280;2876;51.738;10.050;2023-07-02T15:40:25;98664.25;;;22.33;48.68
5703;BME280;2876;51.738;10.050;2023-07-02T15:46:28;98667.94;;;22.23;47.60
5703;BME280;2876;51.738;10.050;2023-07-02T15:52:30;98673.66;;;21.97;48.33
5703;BME280;2876;51.738;10.050;2023-07-02T15:58:32;98678.22;;;22.31;49.43
5703;BME280;2876;51.738;10.050;2023-07-02T16:04:35;98684.44;;;22.37;47.66
5703;BME280;2876;51.738;10.050;2023-07-02T16:10:44;98691.19;;;22.44;49.50
5703;BME280;2876;51.738;10.050;2023-07-02T16:16:46;98687.44;;;22.78;47.16
5703;BME280;2876;51.738;10.050;2023-07-02T16:22:49;98695.44;;;22.32;47.73
5703;BME280;2876;51.738;10.050;2023-07-02T16:28:52;98689.25;;;22.45;46.32
5703;BME280;2876;51.738;10.050;2023-07-02T16:34:54;98685.81;;;23.15;45.66
5703;BME280;2876;51.738;10.050;2023-07-02T16:40:56;98693.50;;;24.74;42.63
5703;BME280;2876;51.738;10.050;2023-07-02T16:46:59;98692.22;;;24.72;40.00
5703;BME280;2876;51.738;10.050;2023-07-02T16:53:01;98694.84;;;24.77;38.55
5703;BME280;2876;51.738;10.050;2023-07-02T16:59:03;98692.41;;;25.34;36.82
5703;BME280;2876;51.738;10.050;2023-07-02T17:05:06;98707.13;;;25.38;37.52
5703;BME280;2876;51.738;10.050;2023-07-02T17:11:10;98682.75;;;23.35;39.20
5703;BME280;2876;51.738;10.050;2023-07-02T17:17:18;98689.09;;;24.10;39.92
5703;BME280;2876;51.738;10.050;2023-07-02T17:23:22;98700.41;;;25.44;37.17
5703;BME280;2876;51.738;10.050;2023-07-02T17:29:25;98687.53;;;23.76;39.88
5703;BME280;2876;51.738;10.050;2023-07-02T17:35:27;98686.84;;;22.62;42.99
5703;BME280;2876;51.738;10.050;2023-07-02T17:41:29;98676.50;;;22.11;43.06
5703;BME280;2876;51.738;10.050;2023-07-02T17:47:32;98676.00;;;21.85;45.11
5703;BME280;2876;51.738;10.050;2023-07-02T17:53:34;98673.00;;;21.58;45.65
5703;BME280;2876;51.738;10.050;2023-07-02T17:59:36;98680.88;;;21.25;47.13
5703;BME280;2876;51.738;10.050;2023-07-02T18:05:38;98679.81;;;20.87;47.27
5703;BME280;2876;51.738;10.050;2023-07-02T18:11:41;98677.53;;;20.60;49.07
5703;BME280;2876;51.738;10.050;2023-07-02T18:17:43;98680.34;;;20.94;48.43
5703;BME280;2876;51.738;10.050;2023-07-02T18:23:45;98684.22;;;21.22;48.51
5703;BME280;2876;51.738;10.050;2023-07-02T18:29:48;98686.19;;;21.11;48.43
5703;BME280;2876;51.738;10.050;2023-07-02T18:35:50;98695.34;;;20.91;48.86
5703;BME280;2876;51.738;10.050;2023-07-02T18:41:54;98693.13;;;20.39;49.96
5703;BME280;2876;51.738;10.050;2023-07-02T18:47:56;98690.47;;;20.28;51.39
5703;BME280;2876;51.738;10.050;2023-07-02T18:54:00;98691.09;;;20.05;52.18
5703;BME280;2876;51.738;10.050;2023-07-02T19:00:05;98686.25;;;19.87;53.63
5703;BME280;2876;51.738;10.050;2023-07-02T19:06:09;98695.50;;;19.75;53.98
5703;BME280;2876;51.738;10.050;2023-07-02T19:12:11;98695.81;;;19.54;55.68
5703;BME280;2876;51.738;10.050;2023-07-02T19:18:13;98684.91;;;19.43;57.08
5703;BME280;2876;51.738;10.050;2023-07-02T19:24:15;98696.63;;;19.39;56.21
5703;BME280;2876;51.738;10.050;2023-07-02T19:30:17;98699.91;;;19.41;55.50
5703;BME280;2876;51.738;10.050;2023-07-02T19:36:19;98702.34;;;19.37;56.45
5703;BME280;2876;51.738;10.050;2023-07-02T19:42:21;98700.16;;;19.09;57.13
5703;BME280;2876;51.738;10.050;2023-07-02T19:48:23;98699.31;;;18.98;59.63
5703;BME280;2876;51.738;10.050;2023-07-02T19:54:25;98700.69;;;18.95;58.53
5703;BME280;2876;51.738;10.050;2023-07-02T20:00:28;98704.72;;;18.83;59.05
5703;BME280;2876;51.738;10.050;2023-07-02T20:06:30;98713.88;;;18.61;62.21
5703;BME280;2876;51.738;10.050;2023-07-02T20:12:32;98704.59;;;18.47;65.11
5703;BME280;2876;51.738;10.050;2023-07-02T20:18:34;98710.78;;;18.27;65.23
5703;BME280;2876;51.738;10.050;2023-07-02T20:24:37;98717.97;;;18.01;68.34
5703;BME280;2876;51.738;10.050;2023-07-02T20:30:39;98713.00;;;17.88;68.45
5703;BME280;2876;51.738;10.050;2023-07-02T20:36:43;98721.69;;;17.53;68.35
5703;BME280;2876;51.738;10.050;2023-07-02T20:42:45;98718.16;;;17.52;69.62
5703;BME280;2876;51.738;10.050;2023-07-02T20:48:47;98713.84;;;17.56;70.20
5703;BME280;2876;51.738;10.050;2023-07-02T20:54:53;98720.88;;;17.20;71.63
5703;BME280;2876;51.738;10.050;2023-07-02T21:01:04;98722.75;;;17.14;71.67
5703;BME280;2876;51.738;10.050;2023-07-02T21:07:06;98728.56;;;17.01;74.34
5703;BME280;2876;51.738;10.050;2023-07-02T21:13:09;98724.56;;;17.04;74.31
5703;BME280;2876;51.738;10.050;2023-07-02T21:19:11;98731.38;;;17.11;72.79
5703;BME280;2876;51.738;10.050;2023-07-02T21:25:13;98721.94;;;16.87;75.19
5703;BME280;2876;51.738;10.050;2023-07-02T21:31:15;98724.69;;;16.92;75.37
5703;BME280;2876;51.738;10.050;2023-07-02T21:37:17;98726.13;;;16.72;76.53
5703;BME280;2876;51.738;10.050;2023-07-02T21:43:19;98731.91;;;16.59;78.17
5703;BME280;2876;51.738;10.050;2023-07-02T21:49:21;98728.03;;;16.72;78.41
5703;BME280;2876;51.738;10.050;2023-07-02T21:55:23;98721.53;;;16.73;76.89
5703;BME280;2876;51.738;10.050;2023-07-02T22:01:25;98717.91;;;16.67;78.35
5703;BME280;2876;51.738;10.050;2023-07-02T22:07:29;98724.22;;;16.73;79.68
5703;BME280;2876;51.738;10.050;2023-07-02T22:13:32;98717.75;;;16.74;80.27
5703;BME280;2876;51.738;10.050;2023-07-02T22:19:34;98713.31;;;16.68;81.17
5703;BME280;2876;51.738;10.050;2023-07-02T22:25:39;98710.28;;;16.64;81.32
5703;BME280;2876;51.738;10.050;2023-07-02T22:31:43;98710.19;;;16.54;81.40
5703;BME280;2876;51.738;10.050;2023-07-02T22:37:46;98701.66;;;16.40;81.24
5703;BME280;2876;51.738;10.050;2023-07-02T22:43:48;98698.03;;;16.35;81.42
5703;BME280;2876;51.738;10.050;2023-07-02T22:49:50;98705.16;;;16.41;82.49
5703;BME280;2876;51.738;10.050;2023-07-02T22:55:52;98692.94;;;16.38;81.86
5703;BME280;2876;51.738;10.050;2023-07-02T23:01:55;98689.09;;;16.34;82.30
5703;BME280;2876;51.738;10.050;2023-07-02T23:07:57;98686.44;;;16.39;83.32
5703;BME280;2876;51.738;10.050;2023-07-02T23:13:59;98672.91;;;16.39;83.03
5703;BME280;2876;51.738;10.050;2023-07-02T23:20:01;98667.06;;;16.47;82.73
5703;BME280;2876;51.738;10.050;2023-07-02T23:26:03;98666.91;;;16.59;83.51
5703;BME280;2876;51.738;10.050;2023-07-02T23:32:06;98658.00;;;16.37;83.70
5703;BME280;2876;51.738;10.050;2023-07-02T23:38:28;98654.38;;;16.26;84.53
5703;BME280;2876;51.738;10.050;2023-07-02T23:44:30;98662.94;;;16.18;83.92
5703;BME280;2876;51.738;10.050;2023-07-02T23:50:32;98657.75;;;16.16;84.36
5703;BME280;2876;51.738;10.050;2023-07-02T23:56:35;98650.59;;;15.83;85.44
